Time;durP1;ratioP1;P1;durP2;ratioP2;P2;SDS_P1;SDS_P2;PMS_P1;PMS_P2;Temp;Humidity;BMP_temperature;BMP_pressure;BME280_temperature;BME280_humidity;BME280_pressure;Samples;Min_cycle;Max_cycle;Signal;HPM_P1;HPM_P2
2023/10/06 00:01:42;;;;;;;7.35;3.47;;;;;;;;;;5064871;28;20503;-82
2023/10/06 00:04:12;;;;;;;7.32;3.70;;;;;;;;;;5066853;28;20032;-82
2023/10/06 00:06:38;;;;;;;7.75;3.50;;;;;;;;;;5069435;28;20012;-81
2023/10/06 00:09:09;;;;;;;6.13;3.67;;;;;;;;;;5063216;28;20056;-80
2023/10/06 00:11:37;;;;;;;7.05;3.30;;;;;;;;;;5058001;28;20381;-80
2023/10/06 00:14:07;;;;;;;6.85;3.10;;;;;;;;;;5042720;28;20020;-82
2023/10/06 00:16:39;;;;;;;7.38;4.10;;;;;;;;;;5045547;28;20020;-82
2023/10/06 00:19:26;;;;;;;8.63;3.60;;;;;;;;;;5042256;28;20032;-81
2023/10/06 00:22:03;;;;;;;8.95;3.55;;;;;;;;;;5059915;28;20316;-80
2023/10/06 00:24:31;;;;;;;8.65;3.60;;;;;;;;;;5058090;28;20033;-82
2023/10/06 00:26:57;;;;;;;9.32;3.85;;;;;;;;;;5060181;28;20035;-79
2023/10/06 00:29:23;;;;;;;7.20;4.07;;;;;;;;;;5060535;28;20025;-82
2023/10/06 00:31:49;;;;;;;8.88;3.33;;;;;;;;;;5043278;28;20529;-82
2023/10/06 00:34:20;;;;;;;7.13;3.63;;;;;;;;;;5060428;28;20128;-77
2023/10/06 00:36:51;;;;;;;7.70;3.97;;;;;;;;;;5064212;28;20012;-77
2023/10/06 00:39:24;;;;;;;8.38;3.90;;;;;;;;;;5063684;28;20074;-77
2023/10/06 00:41:56;;;;;;;10.30;3.88;;;;;;;;;;5070567;28;20431;-78
2023/10/06 00:44:23;;;;;;;7.68;3.45;;;;;;;;;;5064148;28;20411;-76
2023/10/06 00:46:48;;;;;;;8.60;3.80;;;;;;;;;;5053300;28;20024;-77
2023/10/06 00:49:14;;;;;;;8.35;3.95;;;;;;;;;;5070614;28;20027;-79
2023/10/06 00:51:41;;;;;;;9.90;3.75;;;;;;;;;;5052321;28;20048;-78
2023/10/06 00:54:07;;;;;;;8.43;3.90;;;;;;;;;;5073976;28;20103;-78
2023/10/06 00:56:33;;;;;;;7.47;3.97;;;;;;;;;;5067069;28;20482;-79
2023/10/06 00:59:03;;;;;;;7.85;3.80;;;;;;;;;;5045611;28;20507;-76
2023/10/06 01:01:29;;;;;;;7.15;3.40;;;;;;;;;;5049256;28;20029;-78
2023/10/06 01:04:16;;;;;;;10.65;4.40;;;;;;;;;;5071035;28;20039;-78
2023/10/06 01:06:42;;;;;;;7.40;3.45;;;;;;;;;;5066575;28;20040;-76
2023/10/06 01:09:15;;;;;;;8.73;3.67;;;;;;;;;;5074128;28;20830;-77
2023/10/06 01:11:43;;;;;;;10.10;4.20;;;;;;;;;;5065603;28;20210;-77
2023/10/06 01:14:08;;;;;;;8.82;3.97;;;;;;;;;;5065027;28;20056;-76
2023/10/06 01:16:36;;;;;;;7.00;3.85;;;;;;;;;;5064309;28;20059;-77
2023/10/06 01:19:17;;;;;;;8.05;3.88;;;;;;;;;;5067037;28;20028;-77
2023/10/06 01:21:47;;;;;;;7.13;3.25;;;;;;;;;;5070984;28;20512;-76
2023/10/06 01:24:14;;;;;;;10.65;4.00;;;;;;;;;;5053524;28;20433;-77
2023/10/06 01:26:41;;;;;;;8.52;4.30;;;;;;;;;;5065760;28;20056;-76
2023/10/06 01:29:10;;;;;;;6.40;3.50;;;;;;;;;;5050315;28;20032;-77
2023/10/06 01:31:39;;;;;;;8.30;3.78;;;;;;;;;;5069566;28;20392;-77
2023/10/06 01:34:07;;;;;;;10.02;4.10;;;;;;;;;;5066049;28;20020;-78
2023/10/06 01:36:42;;;;;;;9.68;3.72;;;;;;;;;;5051465;28;20020;-77
2023/10/06 01:39:16;;;;;;;8.55;3.88;;;;;;;;;;5055483;28;20024;-77
2023/10/06 01:41:46;;;;;;;6.70;3.22;;;;;;;;;;5053928;28;20047;-77
2023/10/06 01:44:12;;;;;;;6.20;3.33;;;;;;;;;;5066462;28;20379;-77
2023/10/06 01:46:41;;;;;;;7.05;3.63;;;;;;;;;;5054952;28;20485;-76
2023/10/06 01:49:14;;;;;;;9.20;3.42;;;;;;;;;;5063635;28;20096;-77
2023/10/06 01:51:40;;;;;;;7.65;3.90;;;;;;;;;;5049149;28;20168;-77
2023/10/06 01:54:07;;;;;;;7.72;3.35;;;;;;;;;;5070547;28;20518;-77
2023/10/06 01:56:35;;;;;;;6.97;3.30;;;;;;;;;;5071241;28;20021;-76
2023/10/06 01:59:04;;;;;;;9.32;3.67;;;;;;;;;;5075638;28;20036;-76
2023/10/06 02:01:29;;;;;;;7.82;3.55;;;;;;;;;;5071228;28;20024;-77
2023/10/06 02:03:54;;;;;;;7.15;3.80;;;;;;;;;;5070153;28;20036;-76
2023/10/06 02:06:20;;;;;;;5.88;3.22;;;;;;;;;;5071127;28;20025;-77
2023/10/06 02:08:52;;;;;;;7.22;3.35;;;;;;;;;;5069618;28;20036;-77
2023/10/06 02:11:20;;;;;;;9.23;3.42;;;;;;;;;;5067754;28;20477;-79
2023/10/06 02:13:46;;;;;;;7.50;3.10;;;;;;;;;;5072694;28;20032;-78
2023/10/06 02:16:11;;;;;;;7.75;3.80;;;;;;;;;;5065634;28;20066;-78
2023/10/06 02:18:37;;;;;;;9.57;3.45;;;;;;;;;;5070603;28;20081;-78
2023/10/06 02:21:10;;;;;;;8.68;3.67;;;;;;;;;;5066037;28;20101;-78
2023/10/06 02:23:40;;;;;;;6.72;3.17;;;;;;;;;;5068579;28;20028;-78
2023/10/06 02:26:07;;;;;;;7.72;3.45;;;;;;;;;;5048128;28;20081;-78
2023/10/06 02:28:33;;;;;;;6.95;3.35;;;;;;;;;;5061479;28;20024;-78
2023/10/06 02:31:04;;;;;;;6.78;3.22;;;;;;;;;;5064787;28;20025;-78
2023/10/06 02:33:29;;;;;;;6.70;3.00;;;;;;;;;;5067221;28;20028;-78
2023/10/06 02:35:55;;;;;;;7.25;3.65;;;;;;;;;;5046930;28;20515;-78
2023/10/06 02:38:20;;;;;;;7.43;3.35;;;;;;;;;;5063116;28;20043;-79
2023/10/06 02:40:47;;;;;;;8.57;3.72;;;;;;;;;;5066440;28;20029;-78
2023/10/06 02:43:20;;;;;;;9.00;4.00;;;;;;;;;;5074042;28;20100;-79
2023/10/06 02:45:45;;;;;;;;;;;;;;;;;;5053754;28;20029;-78
2023/10/06 02:48:23;;;;;;;5.78;3.20;;;;;;;;;;5076083;28;19919;-78
2023/10/06 02:50:50;;;;;;;8.75;3.72;;;;;;;;;;5055511;28;20024;-78
2023/10/06 02:53:20;;;;;;;7.10;3.60;;;;;;;;;;5054747;28;20097;-78
2023/10/06 02:55:46;;;;;;;8.23;3.55;;;;;;;;;;5058807;28;20024;-78
2023/10/06 02:58:25;;;;;;;8.40;3.17;;;;;;;;;;5067808;28;20028;-78
2023/10/06 03:00:51;;;;;;;9.15;3.78;;;;;;;;;;5070626;28;22540;-78
2023/10/06 03:03:18;;;;;;;8.48;3.67;;;;;;;;;;5066083;28;20024;-78
2023/10/06 03:05:49;;;;;;;7.22;3.40;;;;;;;;;;5069879;28;21871;-78
2023/10/06 03:08:18;;;;;;;7.13;3.53;;;;;;;;;;5072695;28;20060;-78
2023/10/06 03:10:44;;;;;;;6.20;3.33;;;;;;;;;;5055032;28;20040;-78
2023/10/06 03:13:13;;;;;;;7.78;4.00;;;;;;;;;;5050016;28;20028;-79
2023/10/06 03:15:45;;;;;;;7.03;3.53;;;;;;;;;;5067709;28;20036;-78
2023/10/06 03:18:15;;;;;;;6.60;3.35;;;;;;;;;;5063954;28;20103;-79
2023/10/06 03:20:46;;;;;;;7.70;3.95;;;;;;;;;;5062154;28;20412;-78
2023/10/06 03:23:58;;;;;;;10.00;3.70;;;;;;;;;;5044217;28;20028;-78
2023/10/06 03:26:03;;;;;;;7.35;3.30;;;;;;;;;;5050474;28;20514;-78
2023/10/06 03:28:50;;;;;;;7.47;3.60;;;;;;;;;;5048750;28;20048;-78
2023/10/06 03:31:23;;;;;;;8.40;3.72;;;;;;;;;;5066689;28;20101;-78
2023/10/06 03:33:50;;;;;;;7.95;4.15;;;;;;;;;;5058236;28;20039;-78
2023/10/06 03:36:16;;;;;;;7.28;3.63;;;;;;;;;;5047349;28;20024;-78
2023/10/06 03:38:55;;;;;;;8.43;3.92;;;;;;;;;;5071682;28;20021;-78
2023/10/06 03:41:25;;;;;;;6.18;3.95;;;;;;;;;;5051819;28;20066;-78
2023/10/06 03:43:51;;;;;;;8.50;3.88;;;;;;;;;;5048359;28;20402;-78
2023/10/06 03:46:21;;;;;;;8.10;3.75;;;;;;;;;;5066430;28;20032;-78
2023/10/06 03:48:51;;;;;;;5.97;3.92;;;;;;;;;;5051052;28;20035;-78
2023/10/06 03:51:19;;;;;;;9.35;4.10;;;;;;;;;;5051937;28;20117;-78
2023/10/06 03:53:48;;;;;;;6.95;3.92;;;;;;;;;;5067469;28;20028;-78
2023/10/06 03:56:16;;;;;;;6.78;3.28;;;;;;;;;;5048492;28;20480;-78
2023/10/06 03:58:41;;;;;;;6.57;3.72;;;;;;;;;;5050738;28;20028;-78
2023/10/06 04:01:11;;;;;;;8.80;3.70;;;;;;;;;;5061225;28;20021;-78
2023/10/06 04:03:38;;;;;;;9.77;4.15;;;;;;;;;;5048217;28;20036;-78
2023/10/06 04:06:04;;;;;;;8.55;3.75;;;;;;;;;;5047480;28;20043;-78
2023/10/06 04:08:30;;;;;;;7.22;3.60;;;;;;;;;;5057856;28;20041;-78
2023/10/06 04:10:58;;;;;;;9.05;3.60;;;;;;;;;;5066463;28;20017;-80
2023/10/06 04:13:24;;;;;;;11.60;4.70;;;;;;;;;;5065719;28;20057;-82
2023/10/06 04:15:50;;;;;;;8.90;3.70;;;;;;;;;;5064591;28;20047;-82
2023/10/06 04:18:17;;;;;;;8.70;3.72;;;;;;;;;;5066520;28;20086;-81
2023/10/06 04:20:44;;;;;;;9.18;3.75;;;;;;;;;;5049683;28;20051;-81
2023/10/06 04:23:14;;;;;;;8.38;3.97;;;;;;;;;;5052913;28;20033;-82
2023/10/06 04:25:40;;;;;;;8.23;3.72;;;;;;;;;;5067863;28;20036;-81
2023/10/06 04:28:11;;;;;;;8.40;3.83;;;;;;;;;;5062544;28;20074;-81
2023/10/06 04:30:37;;;;;;;8.57;3.72;;;;;;;;;;5061774;28;20086;-81
2023/10/06 04:33:08;;;;;;;7.53;3.17;;;;;;;;;;5051720;28;20029;-81
2023/10/06 04:35:34;;;;;;;8.45;3.50;;;;;;;;;;5060603;28;20051;-81
2023/10/06 04:38:05;;;;;;;7.78;3.42;;;;;;;;;;5055892;28;20028;-80
2023/10/06 04:40:32;;;;;;;5.95;3.15;;;;;;;;;;5037866;28;20381;-78
2023/10/06 04:42:58;;;;;;;7.63;3.50;;;;;;;;;;5046062;28;20025;-78
2023/10/06 04:45:24;;;;;;;6.90;3.35;;;;;;;;;;5041824;28;20027;-78
2023/10/06 04:47:49;;;;;;;8.40;4.32;;;;;;;;;;5053380;28;20028;-78
2023/10/06 04:50:16;;;;;;;6.30;3.58;;;;;;;;;;5064334;28;20030;-78
2023/10/06 04:52:46;;;;;;;9.40;3.83;;;;;;;;;;5053035;28;20115;-77
2023/10/06 04:55:13;;;;;;;8.50;3.75;;;;;;;;;;5058198;28;20032;-78
2023/10/06 04:57:42;;;;;;;9.70;4.10;;;;;;;;;;5047456;28;20024;-78
2023/10/06 05:00:21;;;;;;;8.32;4.47;;;;;;;;;;5068592;28;20048;-79
2023/10/06 05:02:47;;;;;;;7.35;3.88;;;;;;;;;;5067085;28;20028;-78
2023/10/06 05:05:23;;;;;;;9.20;4.32;;;;;;;;;;5070495;28;20025;-79
2023/10/06 05:07:53;;;;;;;10.75;5.70;;;;;;;;;;5064846;28;20029;-78
2023/10/06 05:10:25;;;;;;;9.98;6.20;;;;;;;;;;5051543;28;20059;-79
2023/10/06 05:12:51;;;;;;;9.82;5.40;;;;;;;;;;5066814;28;20040;-82
2023/10/06 05:15:26;;;;;;;11.40;5.72;;;;;;;;;;5065958;28;20034;-82
2023/10/06 05:17:58;;;;;;;10.60;5.47;;;;;;;;;;5047254;28;20028;-81
2023/10/06 05:20:31;;;;;;;8.77;4.85;;;;;;;;;;5072732;28;20029;-82
2023/10/06 05:22:58;;;;;;;9.57;4.68;;;;;;;;;;5066739;28;20147;-82
2023/10/06 05:25:25;;;;;;;8.05;4.15;;;;;;;;;;5047299;28;20064;-82
2023/10/06 05:27:51;;;;;;;7.85;4.25;;;;;;;;;;5051531;28;20479;-82
2023/10/06 05:30:17;;;;;;;6.50;3.67;;;;;;;;;;5032343;28;20089;-80
2023/10/06 05:32:43;;;;;;;9.90;3.70;;;;;;;;;;5067037;28;20036;-82
2023/10/06 05:35:10;;;;;;;8.23;4.05;;;;;;;;;;5058580;28;20037;-82
2023/10/06 05:37:36;;;;;;;7.32;3.58;;;;;;;;;;5052775;28;20051;-81
2023/10/06 05:40:02;;;;;;;8.20;3.65;;;;;;;;;;5059608;28;20020;-78
2023/10/06 05:42:27;;;;;;;6.47;3.33;;;;;;;;;;5060274;28;20438;-78
2023/10/06 05:44:53;;;;;;;7.05;3.20;;;;;;;;;;5047021;28;20043;-78
2023/10/06 05:47:19;;;;;;;6.28;3.05;;;;;;;;;;5068019;28;20029;-78
2023/10/06 05:49:49;;;;;;;7.47;3.42;;;;;;;;;;5065257;28;20090;-82
2023/10/06 05:52:16;;;;;;;7.28;3.45;;;;;;;;;;5067698;28;20020;-82
2023/10/06 05:54:42;;;;;;;9.15;3.40;;;;;;;;;;5064911;28;20481;-77
2023/10/06 05:57:08;;;;;;;6.57;3.58;;;;;;;;;;5059987;28;20033;-79
2023/10/06 05:59:36;;;;;;;7.80;2.97;;;;;;;;;;5064494;28;20024;-79
2023/10/06 06:02:02;;;;;;;6.13;3.00;;;;;;;;;;5051655;28;20017;-78
2023/10/06 06:04:27;;;;;;;6.82;2.92;;;;;;;;;;5048181;28;20411;-78
2023/10/06 06:06:57;;;;;;;6.65;3.53;;;;;;;;;;5067976;28;20103;-78
2023/10/06 06:09:27;;;;;;;6.60;3.28;;;;;;;;;;5071474;28;20458;-78
2023/10/06 06:11:52;;;;;;;6.75;3.00;;;;;;;;;;5050335;28;20135;-79
2023/10/06 06:14:21;;;;;;;6.80;3.10;;;;;;;;;;5050970;28;20544;-78
2023/10/06 06:16:47;;;;;;;7.65;3.13;;;;;;;;;;5067835;28;20020;-79
2023/10/06 06:19:13;;;;;;;7.20;2.80;;;;;;;;;;5070499;28;20036;-79
2023/10/06 06:21:39;;;;;;;7.38;2.90;;;;;;;;;;5070379;28;20085;-79
2023/10/06 06:24:08;;;;;;;7.22;2.90;;;;;;;;;;5062568;28;20024;-79
2023/10/06 06:26:37;;;;;;;6.28;3.10;;;;;;;;;;5066140;28;20016;-79
2023/10/06 06:29:04;;;;;;;5.97;2.67;;;;;;;;;;5046296;28;20078;-79
2023/10/06 06:31:33;;;;;;;6.60;3.38;;;;;;;;;;5062347;28;20040;-79
2023/10/06 06:34:04;;;;;;;10.10;3.13;;;;;;;;;;5067429;28;20036;-79
2023/10/06 06:36:33;;;;;;;6.97;2.95;;;;;;;;;;5059700;28;20052;-79
2023/10/06 06:38:59;;;;;;;8.50;3.50;;;;;;;;;;5050773;28;20389;-78
2023/10/06 06:41:25;;;;;;;10.70;3.10;;;;;;;;;;5071462;28;20025;-79
2023/10/06 06:43:57;;;;;;;4.78;2.78;;;;;;;;;;5052443;28;20049;-79
2023/10/06 06:46:23;;;;;;;7.65;2.83;;;;;;;;;;5063457;28;20408;-79
2023/10/06 06:48:49;;;;;;;8.43;2.80;;;;;;;;;;5052077;28;20038;-79
2023/10/06 06:51:14;;;;;;;5.45;2.78;;;;;;;;;;5054073;28;20114;-79
2023/10/06 06:53:39;;;;;;;8.07;2.95;;;;;;;;;;5064603;28;20036;-79
2023/10/06 06:56:06;;;;;;;9.05;3.28;;;;;;;;;;5065964;28;20020;-78
2023/10/06 06:58:32;;;;;;;9.48;3.25;;;;;;;;;;5061166;28;20052;-79
2023/10/06 07:00:58;;;;;;;7.95;2.88;;;;;;;;;;5070924;28;20104;-79
2023/10/06 07:03:24;;;;;;;6.65;2.97;;;;;;;;;;5073214;28;20128;-79
2023/10/06 07:05:50;;;;;;;9.88;3.47;;;;;;;;;;5070412;28;20427;-79
2023/10/06 07:08:15;;;;;;;6.05;3.10;;;;;;;;;;5068434;28;20063;-79
2023/10/06 07:10:46;;;;;;;6.63;3.22;;;;;;;;;;5069396;28;20063;-79
2023/10/06 07:13:11;;;;;;;8.07;3.30;;;;;;;;;;5050860;28;20035;-79
2023/10/06 07:15:37;;;;;;;8.85;3.15;;;;;;;;;;5071517;28;20033;-80
2023/10/06 07:18:03;;;;;;;7.75;3.10;;;;;;;;;;5072261;28;20023;-79
2023/10/06 07:20:30;;;;;;;6.13;3.25;;;;;;;;;;5057485;28;20475;-80
2023/10/06 07:23:00;;;;;;;8.50;3.70;;;;;;;;;;5048233;28;20040;-79
2023/10/06 07:25:27;;;;;;;6.50;3.38;;;;;;;;;;5058643;28;20046;-79
2023/10/06 07:27:55;;;;;;;6.43;3.20;;;;;;;;;;5064300;28;20021;-79
2023/10/06 07:30:22;;;;;;;7.10;3.50;;;;;;;;;;5081050;28;20043;-79
2023/10/06 07:32:50;;;;;;;9.50;3.30;;;;;;;;;;5062264;28;20477;-79
2023/10/06 07:35:18;;;;;;;6.20;3.17;;;;;;;;;;5071814;28;20017;-79
2023/10/06 07:37:51;;;;;;;8.23;3.70;;;;;;;;;;5049105;28;20016;-79
2023/10/06 07:40:21;;;;;;;;;;;;;;;;;;5070828;28;20017;-79
2023/10/06 07:42:48;;;;;;;7.57;3.17;;;;;;;;;;5063185;28;19912;-79
2023/10/06 07:45:14;;;;;;;7.00;3.50;;;;;;;;;;5065904;28;20028;-79
2023/10/06 07:47:42;;;;;;;7.70;3.53;;;;;;;;;;5050452;28;20404;-79
2023/10/06 07:50:09;;;;;;;8.82;3.80;;;;;;;;;;5060083;28;20028;-79
2023/10/06 07:52:36;;;;;;;8.82;3.53;;;;;;;;;;5074252;28;20031;-79
2023/10/06 07:55:05;;;;;;;7.47;3.28;;;;;;;;;;5047099;28;20090;-79
2023/10/06 07:57:32;;;;;;;10.98;3.70;;;;;;;;;;5044510;28;20012;-80
2023/10/06 07:59:59;;;;;;;9.05;3.55;;;;;;;;;;5062693;28;20103;-80
2023/10/06 08:02:26;;;;;;;9.18;3.95;;;;;;;;;;5069627;28;20032;-80
2023/10/06 08:04:52;;;;;;;8.48;3.55;;;;;;;;;;5043255;28;20040;-79
2023/10/06 08:07:20;;;;;;;8.15;3.50;;;;;;;;;;5065450;28;20032;-80
2023/10/06 08:09:46;;;;;;;7.65;3.08;;;;;;;;;;5069732;28;20032;-80
2023/10/06 08:12:13;;;;;;;12.43;3.95;;;;;;;;;;5053420;28;20030;-80
2023/10/06 08:14:39;;;;;;;7.15;3.47;;;;;;;;;;5051596;28;20047;-79
2023/10/06 08:17:05;;;;;;;7.18;3.47;;;;;;;;;;5077211;28;20024;-79
2023/10/06 08:19:31;;;;;;;7.28;3.63;;;;;;;;;;5065243;28;20033;-79
2023/10/06 08:21:56;;;;;;;8.43;3.60;;;;;;;;;;5070718;28;20515;-80
2023/10/06 08:24:21;;;;;;;8.40;3.85;;;;;;;;;;5052823;28;20525;-80
2023/10/06 08:26:48;;;;;;;7.53;3.60;;;;;;;;;;5049064;28;20393;-79
2023/10/06 08:29:14;;;;;;;6.63;3.35;;;;;;;;;;5062985;28;20528;-79
2023/10/06 08:31:39;;;;;;;9.07;4.05;;;;;;;;;;5050736;28;20115;-79
2023/10/06 08:34:05;;;;;;;6.60;3.40;;;;;;;;;;5069335;28;20271;-79
2023/10/06 08:36:31;;;;;;;6.88;3.47;;;;;;;;;;5066798;28;20396;-80
2023/10/06 08:38:58;;;;;;;9.13;3.72;;;;;;;;;;5066554;28;20037;-79
2023/10/06 08:41:36;;;;;;;10.55;3.80;;;;;;;;;;5065606;28;20087;-79
2023/10/06 08:44:02;;;;;;;9.63;3.60;;;;;;;;;;5065325;28;20032;-79
2023/10/06 08:46:34;;;;;;;8.35;3.30;;;;;;;;;;5069698;28;20020;-80
2023/10/06 08:49:00;;;;;;;10.18;3.60;;;;;;;;;;5050995;28;20051;-79
2023/10/06 08:51:30;;;;;;;6.75;3.58;;;;;;;;;;5045654;28;20068;-79
2023/10/06 08:53:57;;;;;;;7.53;3.35;;;;;;;;;;5045586;28;20037;-79
2023/10/06 08:56:23;;;;;;;7.68;3.15;;;;;;;;;;5062730;28;20024;-80
2023/10/06 08:58:48;;;;;;;9.68;3.55;;;;;;;;;;5068898;28;20109;-79
2023/10/06 09:01:17;;;;;;;8.68;3.53;;;;;;;;;;5069557;28;20027;-79
2023/10/06 09:03:43;;;;;;;11.00;3.60;;;;;;;;;;5049875;28;20029;-79
2023/10/06 09:06:11;;;;;;;8.60;3.47;;;;;;;;;;5065573;28;20111;-80
2023/10/06 09:08:43;;;;;;;8.60;3.90;;;;;;;;;;5071844;28;20055;-79
2023/10/06 09:11:10;;;;;;;8.93;3.83;;;;;;;;;;5067372;28;20099;-79
2023/10/06 09:13:36;;;;;;;8.50;3.50;;;;;;;;;;5067824;28;20365;-79
2023/10/06 09:16:03;;;;;;;10.80;3.53;;;;;;;;;;5067660;28;20121;-79
2023/10/06 09:18:29;;;;;;;9.90;4.05;;;;;;;;;;5049596;28;20024;-80
2023/10/06 09:21:09;;;;;;;11.48;3.80;;;;;;;;;;5051709;28;20496;-84
2023/10/06 09:23:41;;;;;;;9.70;4.10;;;;;;;;;;5064385;28;20524;-84
2023/10/06 09:26:12;;;;;;;9.40;3.58;;;;;;;;;;5049253;28;20055;-84
2023/10/06 09:28:50;;;;;;;9.35;3.45;;;;;;;;;;5067026;28;20039;-80
2023/10/06 09:31:18;;;;;;;11.43;3.78;;;;;;;;;;5065899;28;20550;-77
2023/10/06 09:33:44;;;;;;;9.52;3.70;;;;;;;;;;5068949;28;20055;-78
2023/10/06 09:36:16;;;;;;;9.00;3.85;;;;;;;;;;5051843;28;20032;-79
2023/10/06 09:38:43;;;;;;;7.38;3.70;;;;;;;;;;5047073;28;20489;-79
2023/10/06 09:41:10;;;;;;;11.18;3.72;;;;;;;;;;5063903;28;20035;-78
2023/10/06 09:43:39;;;;;;;7.10;3.83;;;;;;;;;;5071898;28;20040;-77
2023/10/06 09:46:13;;;;;;;8.25;3.78;;;;;;;;;;5069720;28;20103;-78
2023/10/06 09:48:42;;;;;;;10.25;3.95;;;;;;;;;;5071124;28;20115;-79
2023/10/06 09:51:10;;;;;;;10.95;4.20;;;;;;;;;;5073087;28;20515;-79
2023/10/06 09:53:40;;;;;;;10.50;3.78;;;;;;;;;;5051605;28;20024;-79
2023/10/06 09:56:08;;;;;;;10.52;3.90;;;;;;;;;;5062354;28;20031;-80
2023/10/06 09:58:35;;;;;;;8.80;4.22;;;;;;;;;;5073800;28;20051;-80
2023/10/06 10:01:02;;;;;;;11.18;3.78;;;;;;;;;;5063398;28;20511;-79
2023/10/06 10:03:28;;;;;;;9.75;4.10;;;;;;;;;;5067575;28;20025;-80
2023/10/06 10:05:57;;;;;;;8.13;3.60;;;;;;;;;;5069065;28;20419;-79
2023/10/06 10:08:23;;;;;;;9.50;3.80;;;;;;;;;;5067848;28;20106;-79
2023/10/06 10:10:52;;;;;;;10.27;3.92;;;;;;;;;;5051177;28;20481;-80
2023/10/06 10:13:31;;;;;;;9.57;3.92;;;;;;;;;;5065260;28;20393;-80
2023/10/06 10:16:25;;;;;;;8.07;3.60;;;;;;;;;;5060835;28;20027;-79
2023/10/06 10:19:07;;;;;;;8.73;3.92;;;;;;;;;;5026556;28;20040;-80
2023/10/06 10:21:36;;;;;;;10.55;3.65;;;;;;;;;;5062918;28;20050;-79
2023/10/06 10:24:05;;;;;;;7.45;3.45;;;;;;;;;;5074400;28;20036;-80
2023/10/06 10:26:37;;;;;;;8.75;3.60;;;;;;;;;;5065356;28;20100;-80
2023/10/06 10:29:15;;;;;;;8.63;3.60;;;;;;;;;;5053803;28;20035;-80
2023/10/06 10:32:14;;;;;;;9.95;3.70;;;;;;;;;;5069359;28;20448;-80
2023/10/06 10:35:07;;;;;;;6.30;3.40;;;;;;;;;;5021520;28;20040;-80
2023/10/06 10:37:32;;;;;;;10.63;3.60;;;;;;;;;;5052167;28;20484;-80
2023/10/06 10:39:58;;;;;;;9.27;3.13;;;;;;;;;;5073165;28;20028;-80
2023/10/06 10:42:40;;;;;;;8.75;3.50;;;;;;;;;;5054638;28;20028;-80
2023/10/06 10:45:30;;;;;;;9.50;3.85;;;;;;;;;;5055004;28;20032;-80
2023/10/06 10:47:59;;;;;;;12.13;3.85;;;;;;;;;;5065997;28;20032;-80
2023/10/06 10:50:59;;;;;;;9.55;3.90;;;;;;;;;;5055014;28;20031;-80
2023/10/06 10:53:30;;;;;;;8.00;3.50;;;;;;;;;;5070922;28;20079;-80
2023/10/06 10:55:56;;;;;;;6.22;3.45;;;;;;;;;;5068075;28;20056;-80
2023/10/06 10:58:49;;;;;;;8.05;3.95;;;;;;;;;;5062126;28;20103;-80
2023/10/06 11:01:31;;;;;;;8.38;3.50;;;;;;;;;;5062371;28;20032;-80
2023/10/06 11:04:18;;;;;;;11.43;3.85;;;;;;;;;;5051636;28;20064;-79
2023/10/06 11:06:46;;;;;;;10.20;4.05;;;;;;;;;;5069086;28;20123;-80
2023/10/06 11:09:23;;;;;;;10.93;3.90;;;;;;;;;;5045892;28;20032;-80
2023/10/06 11:11:48;;;;;;;10.38;3.85;;;;;;;;;;5052815;28;20055;-79
2023/10/06 11:14:13;;;;;;;10.27;4.20;;;;;;;;;;5053069;28;20117;-80
2023/10/06 11:16:46;;;;;;;10.23;3.75;;;;;;;;;;5051522;28;20020;-80
2023/10/06 11:19:16;;;;;;;10.55;3.97;;;;;;;;;;5046497;28;20028;-80
2023/10/06 11:21:47;;;;;;;7.28;3.45;;;;;;;;;;5047046;28;20041;-80
2023/10/06 11:24:24;;;;;;;11.38;3.65;;;;;;;;;;5063994;28;20425;-80
2023/10/06 11:26:51;;;;;;;11.93;3.83;;;;;;;;;;5051553;28;20024;-80
2023/10/06 11:29:27;;;;;;;8.77;3.85;;;;;;;;;;5047265;28;20047;-80
2023/10/06 11:31:53;;;;;;;10.98;3.78;;;;;;;;;;5051984;28;20027;-80
2023/10/06 11:34:18;;;;;;;8.35;3.70;;;;;;;;;;5051479;28;20029;-79
2023/10/06 11:36:44;;;;;;;8.70;3.72;;;;;;;;;;5055019;28;20016;-80
2023/10/06 11:39:10;;;;;;;7.55;3.60;;;;;;;;;;5051219;28;20496;-80
2023/10/06 11:41:35;;;;;;;10.15;4.43;;;;;;;;;;5047566;28;20028;-80
2023/10/06 11:44:00;;;;;;;9.85;3.67;;;;;;;;;;5047015;28;20240;-80
2023/10/06 11:46:27;;;;;;;8.43;3.72;;;;;;;;;;5066886;28;20043;-80
2023/10/06 11:49:07;;;;;;;9.70;3.70;;;;;;;;;;5044779;28;20484;-81
2023/10/06 11:51:39;;;;;;;8.77;3.95;;;;;;;;;;5045319;28;20031;-80
2023/10/06 11:54:05;;;;;;;6.37;3.33;;;;;;;;;;5046754;28;20034;-80
2023/10/06 11:56:32;;;;;;;11.75;3.80;;;;;;;;;;5044267;28;20024;-80
2023/10/06 11:58:57;;;;;;;11.68;4.18;;;;;;;;;;5041521;28;20036;-78
2023/10/06 12:01:32;;;;;;;11.48;4.22;;;;;;;;;;5042580;28;20036;-78
2023/10/06 12:04:00;;;;;;;9.93;4.30;;;;;;;;;;5063633;28;20033;-78
2023/10/06 12:06:39;;;;;;;10.27;3.90;;;;;;;;;;5062974;28;20135;-78
2023/10/06 12:09:08;;;;;;;8.98;3.92;;;;;;;;;;5060861;28;20025;-83
2023/10/06 12:11:33;;;;;;;10.35;3.70;;;;;;;;;;5048405;28;20043;-84
2023/10/06 12:13:58;;;;;;;11.02;4.32;;;;;;;;;;5060499;28;20401;-84
2023/10/06 12:16:24;;;;;;;8.98;4.05;;;;;;;;;;5061945;28;20387;-81
2023/10/06 12:18:49;;;;;;;9.07;4.18;;;;;;;;;;5037479;28;20024;-82
2023/10/06 12:21:15;;;;;;;10.68;3.80;;;;;;;;;;5056747;28;20529;-83
2023/10/06 12:23:47;;;;;;;11.25;4.15;;;;;;;;;;5043690;28;20029;-83
2023/10/06 12:26:12;;;;;;;10.03;3.97;;;;;;;;;;5057281;28;20028;-83
2023/10/06 12:28:44;;;;;;;7.75;3.90;;;;;;;;;;5061978;28;20644;-83
2023/10/06 12:31:11;;;;;;;7.82;4.35;;;;;;;;;;5053048;28;20051;-83
2023/10/06 12:33:38;;;;;;;11.45;4.18;;;;;;;;;;5044420;28;20024;-84
2023/10/06 12:36:08;;;;;;;7.72;3.70;;;;;;;;;;5060776;28;20032;-83
2023/10/06 12:38:34;;;;;;;9.98;3.75;;;;;;;;;;5040907;28;20119;-81
2023/10/06 12:40:59;;;;;;;9.27;4.30;;;;;;;;;;5060870;28;20119;-84
2023/10/06 12:43:24;;;;;;;10.30;4.18;;;;;;;;;;5045016;28;20025;-83
2023/10/06 12:45:50;;;;;;;9.95;4.47;;;;;;;;;;5062086;28;20031;-84
2023/10/06 12:48:16;;;;;;;9.07;4.10;;;;;;;;;;5058679;28;20028;-82
2023/10/06 12:50:42;;;;;;;7.90;3.75;;;;;;;;;;5041309;28;20036;-83
2023/10/06 12:53:10;;;;;;;7.93;3.55;;;;;;;;;;5057435;28;20086;-82
2023/10/06 12:55:35;;;;;;;7.85;3.42;;;;;;;;;;5062968;28;20115;-83
2023/10/06 12:58:01;;;;;;;9.85;4.22;;;;;;;;;;5057829;28;20468;-83
2023/10/06 13:00:28;;;;;;;8.15;4.22;;;;;;;;;;5059878;28;20025;-83
2023/10/06 13:02:53;;;;;;;10.25;4.35;;;;;;;;;;5060444;28;20033;-83
2023/10/06 13:05:22;;;;;;;12.07;3.70;;;;;;;;;;5043919;28;20051;-83
2023/10/06 13:07:48;;;;;;;8.48;3.83;;;;;;;;;;5043908;28;20103;-84
2023/10/06 13:10:16;;;;;;;8.23;3.47;;;;;;;;;;5056145;28;20116;-82
2023/10/06 13:12:42;;;;;;;9.23;3.80;;;;;;;;;;5044830;28;20407;-83
2023/10/06 13:15:17;;;;;;;8.88;3.88;;;;;;;;;;5059680;28;20029;-84
2023/10/06 13:17:44;;;;;;;10.10;4.00;;;;;;;;;;5065307;28;20039;-84
2023/10/06 13:20:13;;;;;;;11.00;3.80;;;;;;;;;;5060906;28;20508;-80
2023/10/06 13:22:41;;;;;;;11.27;4.00;;;;;;;;;;5066156;28;20093;-78
2023/10/06 13:25:09;;;;;;;11.38;4.32;;;;;;;;;;5066266;28;20036;-79
2023/10/06 13:27:48;;;;;;;8.55;4.00;;;;;;;;;;5046624;28;20051;-78
2023/10/06 13:30:14;;;;;;;7.82;3.63;;;;;;;;;;5060239;28;20067;-79
2023/10/06 13:32:42;;;;;;;9.73;3.45;;;;;;;;;;5065600;28;20453;-79
2023/10/06 13:35:11;;;;;;;8.88;3.75;;;;;;;;;;5063997;28;20021;-78
2023/10/06 13:37:39;;;;;;;12.20;4.10;;;;;;;;;;5066039;28;20033;-78
2023/10/06 13:40:10;;;;;;;8.77;3.78;;;;;;;;;;5046082;28;20695;-80
2023/10/06 13:42:36;;;;;;;9.00;3.55;;;;;;;;;;5045001;28;20121;-80
2023/10/06 13:45:05;;;;;;;9.82;3.95;;;;;;;;;;5066510;28;20028;-80
2023/10/06 13:47:31;;;;;;;10.02;4.13;;;;;;;;;;5062453;28;20067;-81
2023/10/06 13:49:56;;;;;;;9.23;3.85;;;;;;;;;;5059746;28;20484;-80
2023/10/06 13:52:22;;;;;;;8.32;4.05;;;;;;;;;;5043542;28;20032;-80
2023/10/06 13:54:49;;;;;;;11.82;4.70;;;;;;;;;;5039410;28;20029;-80
2023/10/06 13:57:14;;;;;;;10.80;4.43;;;;;;;;;;5064175;28;20024;-81
2023/10/06 13:59:42;;;;;;;12.18;4.63;;;;;;;;;;5048310;28;20118;-80
2023/10/06 14:02:10;;;;;;;13.13;4.10;;;;;;;;;;5039833;28;20476;-81
2023/10/06 14:04:35;;;;;;;9.05;3.67;;;;;;;;;;5060515;28;20539;-80
2023/10/06 14:07:05;;;;;;;8.35;3.90;;;;;;;;;;5041514;28;20038;-81
2023/10/06 14:09:31;;;;;;;8.73;4.30;;;;;;;;;;5062422;28;20028;-80
2023/10/06 14:11:56;;;;;;;8.95;4.05;;;;;;;;;;5041205;28;20131;-81
2023/10/06 14:14:59;;;;;;;10.15;4.07;;;;;;;;;;5043033;28;20115;-80
2023/10/06 14:17:16;;;;;;;9.80;4.05;;;;;;;;;;5061867;28;20113;-80
2023/10/06 14:19:46;;;;;;;8.52;3.67;;;;;;;;;;5048926;28;20127;-80
2023/10/06 14:22:12;;;;;;;10.75;3.90;;;;;;;;;;5065496;28;20479;-80
2023/10/06 14:24:39;;;;;;;9.40;4.07;;;;;;;;;;5066351;28;20033;-80
2023/10/06 14:27:06;;;;;;;9.70;3.83;;;;;;;;;;5054526;28;20040;-80
2023/10/06 14:29:32;;;;;;;8.80;3.78;;;;;;;;;;5067658;28;20021;-84
2023/10/06 14:35:11;;;;;;;10.05;4.10;;;;;;;;;;5069715;28;20062;-81
2023/10/06 14:37:40;;;;;;;11.93;4.05;;;;;;;;;;5063394;28;20023;-83
2023/10/06 14:48:27;;;;;;;9.10;4.07;;;;;;;;;;5064515;28;20039;-83
2023/10/06 14:51:03;;;;;;;14.13;4.35;;;;;;;;;;5054419;28;20068;-84
2023/10/06 14:53:28;;;;;;;7.43;3.72;;;;;;;;;;5045735;28;20542;-84
2023/10/06 14:55:54;;;;;;;10.18;3.70;;;;;;;;;;5043723;28;20032;-83
2023/10/06 14:58:20;;;;;;;10.25;3.60;;;;;;;;;;5068054;28;20111;-83
2023/10/06 15:00:48;;;;;;;7.30;3.72;;;;;;;;;;5044567;28;20077;-83
2023/10/06 15:03:18;;;;;;;8.43;4.15;;;;;;;;;;5040297;28;20017;-83